• Join FlightAware (Why Join?)
  • Login
  • US Flag 
09:52AM EDT


 

Airport Tracker/Info


-or-


 

Live Flight TrackerFlight Track Log ✈ PKW653 ✈ 03-May-2014 ✈ KPTK - KELP

Flight Track Log - Related Links

Times and Time Zones

All times are in EDT time to prevent confusion due to time zone crossing. See the PKW653 flight status page for this flight to view local times or setup timezone preferences in your user account.

Time Position Orientation Groundspeed Altitude Reporting Facility
EDT Latitude Longitude Course Direction KTS MPH feet Rate Location/Type
10:56AM 42.6622 -83.4547 255° West 166 191 1,600  Level Cleveland Center
10:57AM 42.6517 -83.5100 255° West 196 226 3,000 1,740 Climbing Cleveland Center
10:58AM 42.6158 -83.5672 230° Southwest 184 212 4,800 900 Climbing Cleveland Center
10:59AM 42.5894 -83.6192 235° Southwest 181 208 5,000 60 Climbing Cleveland Center
11:00AM 42.5583 -83.6683 229° Southwest 177 204 5,000 300 Level Cleveland Center
11:01AM 42.5303 -83.7192 233° Southwest 173 199 5,700 1,260 Climbing Cleveland Center
11:02AM 42.5031 -83.7831 240° Southwest 174 200 7,600 1,560 Climbing Cleveland Center
11:03AM 42.4642 -83.8378 226° Southwest 182 209 8,900 1,140 Climbing Cleveland Center
11:04AM 42.4339 -83.8944 234° Southwest 185 213 10,000 1,080 Climbing Cleveland Center
11:05AM 42.4028 -83.9503 233° Southwest 185 213 11,200 1,080 Climbing Cleveland Center
11:06AM 42.3725 -84.0006 231° Southwest 179 206 12,300 1,020 Climbing Cleveland Center
11:07AM 42.3456 -84.0531 235° Southwest 173 199 13,400 1,080 Climbing Cleveland Center
11:08AM 42.3183 -84.1083 236° Southwest 176 203 14,500 960 Climbing Cleveland Center
11:09AM 42.3036 -84.1697 252° West 175 201 15,400 780 Climbing Cleveland Center
11:10AM 42.2783 -84.2442 245° Southwest 180 207 16,100 300 Climbing Cleveland Center
11:11AM 42.2556 -84.3142 246° West 204 235 16,100 -60 Level Cleveland Center
11:12AM 42.2303 -84.3906 246° West 219 252 16,000 -60 Descending Cleveland Center
11:13AM 42.2053 -84.4714 247° West 230 265 16,000  Level Cleveland Center
11:14AM 42.1778 -84.5547 246° West 240 276 16,000 -60 Level Cleveland Center
11:15AM 42.1500 -84.6392 246° West 245 282 15,900  Descending Cleveland Center
11:16AM 42.1206 -84.7353 248° West 246 283 16,100 60 Climbing Cleveland Center
11:17AM 42.0947 -84.8064 244° Southwest 246 283 16,100 -60 Level Chicago Center
11:18AM 42.0692 -84.8925 248° West 246 283 16,000  Descending Chicago Center
11:19AM 42.0350 -84.9742 241° Southwest 249 287 16,100  Climbing Chicago Center
11:20AM 41.9986 -85.0725 244° Southwest 252 290 16,100  Level Chicago Center
11:21AM 41.9739 -85.1511 247° West 249 287 16,100 -60 Level Chicago Center
11:22AM 41.9519 -85.2356 251° West 245 282 16,000  Descending Chicago Center
11:23AM 41.9267 -85.3197 248° West 244 281 16,200  Climbing Chicago Center
11:24AM 41.8914 -85.4172 244° Southwest 244 281 16,000 -60 Descending Chicago Center
11:25AM 41.8608 -85.4992 243° Southwest 245 282 16,100  Climbing Chicago Center
11:26AM 41.8339 -85.5831 247° West 245 282 16,000 -60 Descending Chicago Center
11:27AM 41.8081 -85.6672 248° West 246 283 16,000  Level Chicago Center
11:28AM 41.7800 -85.7506 246° West 247 284 16,000  Level Chicago Center
11:29AM 41.7503 -85.8347 245° Southwest 248 285 16,000  Level Chicago Center
11:30AM 41.7156 -85.9336 245° Southwest 248 285 16,000  Level Chicago Center
11:31AM 41.6886 -86.0164 246° West 246 283 16,000  Level Chicago Center
11:32AM 41.6597 -86.0997 245° Southwest 247 284 16,000  Level Chicago Center
11:34AM 41.6300 -86.1814 244° Southwest 247 284 16,000  Level Chicago Center
11:35AM 41.6031 -86.2644 247° West 245 282 16,000 -60 Level Chicago Center
11:36AM 41.5764 -86.3458 246° West 242 278 15,900 -60 Descending Chicago Center
11:37AM 41.5472 -86.4258 244° Southwest 241 277 15,900  Level Chicago Center
11:38AM 41.5106 -86.5225 243° Southwest 242 278 15,900  Level Chicago Center
11:39AM 41.4842 -86.6039 247° West 242 278 15,900  Level Chicago Center
11:40AM 41.4519 -86.6836 242° Southwest 243 280 15,900 60 Level Chicago Center
11:41AM 41.4258 -86.7739 249° West 240 276 16,100  Climbing Chicago Center
11:42AM 41.3983 -86.8528 245° Southwest 235 270 16,000  Descending Chicago Center
11:43AM 41.3669 -86.9367 244° Southwest 237 273 16,100  Climbing Chicago Center
11:44AM 41.3381 -87.0150 244° Southwest 236 272 16,000 -60 Descending Chicago Center
11:45AM 41.3297 -87.0956 262° West 219 252 16,000  Level Chicago Center
11:46AM 41.3261 -87.1817 267° West 216 249 16,000  Level Chicago Center
11:47AM 41.3033 -87.2556 248° West 226 260 16,000  Level Chicago Center
11:48AM 41.2711 -87.3294 240° Southwest 233 268 16,000  Level Chicago Center
11:49AM 41.2400 -87.4117 243° Southwest 232 267 16,000 -60 Level Chicago Center
11:50AM 41.2139 -87.4903 246° West 232 267 15,900  Descending Chicago Center
11:51AM 41.1892 -87.5694 247° West 232 267 16,000  Climbing Chicago Center
11:52AM 41.1606 -87.6481 244° Southwest 234 269 15,900 -60 Descending Chicago Center
11:53AM 41.1322 -87.7356 247° West 238 274 15,900  Level Chicago Center
11:54AM 41.1008 -87.8144 242° Southwest 239 275 15,900  Level Chicago Center
11:55AM 41.0719 -87.8944 244° Southwest 241 277 15,900  Level Chicago Center
11:56AM 41.0392 -87.9789 243° Southwest 240 276 15,900  Level Chicago Center
11:57AM 41.0108 -88.0572 244° Southwest 238 274 15,900 60 Level Chicago Center
11:58AM 40.9822 -88.1353 244° Southwest 236 272 16,100 60 Climbing Chicago Center
11:59AM 40.9547 -88.2186 246° West 236 272 16,100 -60 Level Chicago Center
12:00PM 40.9169 -88.2936 236° Southwest 242 278 16,000  Descending Chicago Center
12:01PM 40.8892 -88.3736 245° Southwest 242 278 16,100  Climbing Chicago Center
12:02PM 40.8667 -88.4553 250° West 239 275 16,000  Descending Chicago Center
12:03PM 40.8317 -88.5331 239° Southwest 244 281 16,100  Climbing Chicago Center
12:04PM 40.7983 -88.6294 245° Southwest 242 278 16,100  Level Chicago Center
12:05PM 40.7661 -88.7083 242° Southwest 243 280 16,100  Level Chicago Center
12:06PM 40.7339 -88.7875 242° Southwest 243 280 16,100  Level Chicago Center
12:07PM 40.7047 -88.8739 246° West 244 281 16,100 -60 Level Chicago Center
12:08PM 40.6747 -88.9553 244° Southwest 244 281 16,000 -60 Descending Chicago Center
12:10PM 40.6419 -89.0350 242° Southwest 245 282 16,000  Level Chicago Center
12:11PM 40.6111 -89.1161 243° Southwest 245 282 16,100  Climbing Chicago Center
12:12PM 40.5811 -89.1978 244° Southwest 246 283 16,100 -60 Level Chicago Center
12:13PM 40.5464 -89.2792 241° Southwest 252 290 16,000  Descending Chicago Center
12:14PM 40.5158 -89.3622 244° Southwest 253 291 16,100  Climbing Chicago Center
12:15PM 40.4836 -89.4444 243° Southwest 253 291 16,100  Level Chicago Center
12:16PM 40.4511 -89.5272 243° Southwest 253 291 16,100  Level Chicago Center
12:17PM 40.4186 -89.6092 243° Southwest 253 291 16,100  Level Chicago Center
12:18PM 40.3797 -89.7094 243° Southwest 254 292 16,100  Level Chicago Center
12:19PM 40.3486 -89.7922 244° Southwest 255 293 16,100 -60 Level Chicago Center
12:20PM 40.3147 -89.8733 241° Southwest 253 291 16,000 -60 Descending Chicago Center
12:21PM 40.2797 -89.9558 241° Southwest 254 292 16,000  Level Chicago Center
12:22PM 40.2542 -90.0394 248° West 249 287 16,000  Level Chicago Center
12:23PM 40.2125 -90.1161 235° Southwest 255 293 16,000  Level Chicago Center
12:24PM 40.1828 -90.1986 245° Southwest 252 290 16,000  Level Chicago Center
12:25PM 40.1536 -90.2817 245° Southwest 251 289 16,000  Level Chicago Center
12:26PM 40.1194 -90.3636 241° Southwest 255 293 16,000  Level Chicago Center
12:27PM 40.0814 -90.4603 243° Southwest 253 291 16,000 60 Level Chicago Center
12:27PM 40.0681 -90.4914 241° Southwest 252 290 16,100 60 Climbing Kansas City Center
12:29PM 40.0364 -90.5739 243° Southwest 252 290 16,100 -60 Level Kansas City Center
12:30PM 40.0025 -90.6542 241° Southwest 252 290 16,000 -60 Descending Kansas City Center
12:31PM 39.9711 -90.7356 243° Southwest 252 290 16,000  Level Kansas City Center
12:32PM 39.9297 -90.8150 236° Southwest 259 298 16,100  Climbing Kansas City Center
12:33PM 39.8953 -90.9150 246° West 254 292 16,000 -60 Descending Kansas City Center
12:34PM 39.8703 -90.9886 246° West 253 291 16,000  Level Kansas City Center
12:35PM 39.8256 -91.0817 238° Southwest 253 291 16,100  Climbing Kansas City Center
12:36PM 39.7906 -91.1625 241° Southwest 255 293 16,000 -60 Descending Kansas City Center
12:37PM 39.7619 -91.2439 245° Southwest 255 293 16,000  Level Kansas City Center
12:38PM 39.7303 -91.3269 244° Southwest 255 293 16,000  Level Kansas City Center
12:39PM 39.6919 -91.4086 239° Southwest 258 297 16,100  Climbing Kansas City Center
12:40PM 39.6558 -91.4914 240° Southwest 259 298 16,100 -120 Level Kansas City Center
12:41PM 39.6164 -91.5919 243° Southwest 260 299 15,900 -60 Descending Kansas City Center
12:42PM 39.5814 -91.6744 241° Southwest 260 299 16,000  Climbing Kansas City Center
12:43PM 39.5478 -91.7575 242° Southwest 260 299 16,000  Level Kansas City Center
12:44PM 39.5128 -91.8400 241° Southwest 261 300 16,000  Level Kansas City Center
12:45PM 39.4797 -91.9222 243° Southwest 261 300 16,100  Climbing Kansas City Center
12:46PM 39.4372 -92.0211 241° Southwest 261 300 16,000 -60 Descending Kansas City Center
12:47PM 39.4031 -92.1039 242° Southwest 261 300 16,000  Level Kansas City Center
12:48PM 39.3669 -92.1858 240° Southwest 262 302 16,100  Climbing Kansas City Center
12:49PM 39.3306 -92.2678 240° Southwest 262 302 16,000 -120 Descending Kansas City Center
12:50PM 39.2947 -92.3517 241° Southwest 264 304 15,900  Descending Kansas City Center
12:51PM 39.2519 -92.4469 240° Southwest 264 304 16,000  Climbing Kansas City Center
12:52PM 39.2147 -92.5278 239° Southwest 264 304 16,000 -60 Level Kansas City Center
12:53PM 39.1808 -92.6100 242° Southwest 264 304 15,900 -60 Descending Kansas City Center
12:54PM 39.1486 -92.6942 244° Southwest 264 304 15,900 60 Level Kansas City Center
12:55PM 39.1067 -92.7728 236° Southwest 264 304 16,100 60 Climbing Kansas City Center
12:56PM 39.0764 -92.8550 245° Southwest 262 302 16,100 -60 Level Kansas City Center
12:57PM 39.0422 -92.9372 242° Southwest 259 298 16,000 -60 Descending Kansas City Center
12:58PM 38.9983 -93.0347 240° Southwest 260 299 16,000  Level Kansas City Center
12:59PM 38.9597 -93.1172 239° Southwest 261 300 16,100  Climbing Kansas City Center
01:00PM 38.9247 -93.2028 242° Southwest 266 306 16,000  Descending Kansas City Center
01:02PM 38.8881 -93.2847 240° Southwest 266 306 16,100  Climbing Kansas City Center
01:03PM 38.8525 -93.3661 241° Southwest 266 306 16,000 -120 Descending Kansas City Center
01:04PM 38.8067 -93.4669 240° Southwest 267 307 15,900  Descending Kansas City Center
01:05PM 38.7686 -93.5506 240° Southwest 268 308 16,000  Climbing Kansas City Center
01:06PM 38.7314 -93.6333 240° Southwest 268 308 16,000  Level Kansas City Center
01:07PM 38.6961 -93.7175 242° Southwest 268 308 16,000  Level Kansas City Center
01:08PM 38.6608 -93.7942 240° Southwest 268 308 16,000  Level Kansas City Center
01:09PM 38.6167 -93.8967 241° Southwest 270 311 16,000 -60 Level Kansas City Center
01:10PM 38.5783 -93.9778 239° Southwest 271 312 15,900 -120 Descending Kansas City Center
01:11PM 38.5358 -94.0597 236° Southwest 271 312 15,800 60 Descending Kansas City Center
01:12PM 38.5011 -94.1458 243° Southwest 274 315 16,100 60 Climbing Kansas City Center
01:13PM 38.4644 -94.2286 241° Southwest 272 313 16,000  Descending Kansas City Center
01:14PM 38.4256 -94.3122 239° Southwest 272 313 16,100  Climbing Kansas City Center
01:15PM 38.3886 -94.3978 241° Southwest 274 315 16,000 -60 Descending Kansas City Center
01:16PM 38.3439 -94.4958 240° Southwest 273 314 16,000  Level Kansas City Center
01:17PM 38.3042 -94.5806 239° Southwest 274 315 16,000  Level Kansas City Center
01:18PM 38.2628 -94.6619 237° Southwest 274 315 16,100  Climbing Kansas City Center
01:19PM 38.2231 -94.7458 239° Southwest 274 315 16,000  Descending Kansas City Center
01:20PM 38.1861 -94.8317 241° Southwest 274 315 16,100  Climbing Kansas City Center
01:21PM 38.1489 -94.9164 241° Southwest 274 315 16,000 -480 Descending Kansas City Center
01:22PM 38.0997 -95.0156 238° Southwest 274 315 15,200 -840 Descending Kansas City Center
01:23PM 38.0581 -95.1044 239° Southwest 282 325 14,300 -600 Descending Kansas City Center
01:24PM 38.0206 -95.1947 242° Southwest 287 330 14,000 -180 Descending Kansas City Center
01:25PM 37.9822 -95.2764 239° Southwest 275 316 14,000  Level Kansas City Center
01:26PM 37.9447 -95.3600 240° Southwest 272 313 14,000  Level Kansas City Center
01:27PM 37.9067 -95.4522 242° Southwest 272 313 14,000  Level Kansas City Center
01:28PM 37.8658 -95.5319 237° Southwest 272 313 14,000  Level Kansas City Center
01:29PM 37.8244 -95.6128 237° Southwest 271 312 14,000  Level Kansas City Center
01:30PM 37.7814 -95.6903 235° Southwest 272 313 14,000  Level Kansas City Center
01:31PM 37.7447 -95.7714 240° Southwest 270 311 14,000 -60 Level Kansas City Center
01:32PM 37.6967 -95.8717 239° Southwest 273 314 13,900  Descending Kansas City Center
01:34PM 37.6611 -95.9511 241° Southwest 269 310 14,000  Climbing Kansas City Center
01:35PM 37.6217 -96.0267 237° Southwest 263 303 13,900  Descending Kansas City Center
01:36PM 37.5853 -96.1047 240° Southwest 263 303 14,000  Climbing Kansas City Center
01:37PM 37.5483 -96.1825 239° Southwest 262 302 14,000  Level Kansas City Center
01:38PM 37.5092 -96.2589 237° Southwest 260 299 14,000  Level Kansas City Center
01:39PM 37.4744 -96.3372 241° Southwest 260 299 14,000  Level Kansas City Center
01:40PM 37.4281 -96.4256 237° Southwest 257 296 14,000 -60 Level Kansas City Center
01:41PM 37.3917 -96.5042 240° Southwest 256 295 13,900 -60 Descending Kansas City Center
01:42PM 37.3539 -96.5797 238° Southwest 257 296 13,900  Level Kansas City Center
01:43PM 37.3167 -96.6553 238° Southwest 256 295 14,000  Climbing Kansas City Center
01:44PM 37.2822 -96.7314 240° Southwest 256 295 13,900  Descending Kansas City Center
01:45PM 37.2461 -96.8069 239° Southwest 256 295 14,000  Climbing Kansas City Center
01:46PM 37.2064 -96.8825 237° Southwest 255 293 14,000  Level Kansas City Center
01:47PM 37.1661 -96.9589 237° Southwest 258 297 14,000  Level Kansas City Center
01:48PM 37.1219 -97.0517 239° Southwest 258 297 14,100  Climbing Kansas City Center
01:49PM 37.0836 -97.1283 238° Southwest 258 297 14,000 -60 Descending Kansas City Center
01:50PM 37.0453 -97.2042 238° Southwest 258 297 14,000  Level Kansas City Center
01:51PM 37.0056 -97.2808 237° Southwest 258 297 14,000  Level Kansas City Center
01:52PM 36.9686 -97.3589 239° Southwest 259 298 14,000  Level Kansas City Center
01:53PM 36.9317 -97.4347 239° Southwest 259 298 14,000  Level Kansas City Center
01:54PM 36.8842 -97.5258 237° Southwest 258 297 14,000  Level Kansas City Center
01:55PM 36.8453 -97.6019 237° Southwest 259 298 14,000  Level Kansas City Center
01:56PM 36.8061 -97.6808 238° Southwest 260 299 14,000  Level Kansas City Center
01:57PM 36.7628 -97.7647 237° Southwest 260 299 14,000  Level Kansas City Center
01:58PM 36.7253 -97.8411 239° Southwest 260 299 14,000  Level Kansas City Center
01:59PM 36.6875 -97.9175 238° Southwest 260 299 14,000  Level Kansas City Center
02:00PM 36.6494 -97.9950 239° Southwest 260 299 14,100  Climbing Kansas City Center
02:01PM 36.6092 -98.0708 237° Southwest 260 299 14,000 -60 Descending Kansas City Center
02:02PM 36.5672 -98.1450 235° Southwest 260 299 14,000  Level Kansas City Center
02:03PM 36.5308 -98.2200 239° Southwest 259 298 14,100  Climbing Kansas City Center
02:06PM 36.4447 -98.3869 237° Southwest 259 298 14,100 -60 Level Kansas City Center
02:07PM 36.4053 -98.4614 237° Southwest 259 298 14,000 -120 Descending Kansas City Center
02:08PM 36.3681 -98.5364 238° Southwest 259 298 13,900  Descending Kansas City Center
02:09PM 36.3281 -98.6083 235° Southwest 256 295 14,000  Climbing Kansas City Center
02:10PM 36.2889 -98.6869 238° Southwest 262 302 14,000  Level Kansas City Center
02:11PM 36.2386 -98.7778 236° Southwest 267 307 14,100  Climbing Kansas City Center
02:12PM 36.1964 -98.8536 235° Southwest 266 306 14,000 -60 Descending Kansas City Center
02:14PM 36.1200 -99.0047 238° Southwest 261 300 14,000  Level Fort Worth Center
02:15PM 36.0833 -99.0800 239° Southwest 259 298 14,100  Climbing Fort Worth Center
02:16PM 36.0411 -99.1608 237° Southwest 252 290 14,100 -60 Level Kansas City Center
02:17PM 36.0069 -99.2353 240° Southwest 250 288 14,000 -60 Descending Kansas City Center
02:18PM 35.9661 -99.3061 235° Southwest 252 290 14,000  Level Kansas City Center
02:19PM 35.9247 -99.3769 234° Southwest 252 290 14,000  Level Kansas City Center
02:20PM 35.8847 -99.4478 235° Southwest 252 290 14,000  Level Kansas City Center
02:21PM 35.8406 -99.5344 238° Southwest 252 290 14,000  Level Kansas City Center
02:22PM 35.8028 -99.6056 237° Southwest 251 289 14,000  Level Kansas City Center
02:23PM 35.7647 -99.6764 237° Southwest 248 285 14,100  Climbing Fort Worth Center
02:24PM 35.7264 -99.7475 236° Southwest 248 285 14,000  Descending Fort Worth Center
02:25PM 35.6817 -99.8319 237° Southwest 248 285 14,100 60 Climbing Fort Worth Center
02:25PM 35.6747 -99.8464 239° Southwest 248 285 14,100  Level Fort Worth Center
02:26PM 35.6361 -99.9150 235° Southwest 246 283 14,100 -60 Level Fort Worth Center
02:27PM 35.5969 -99.9842 235° Southwest 246 283 14,000 -60 Descending Fort Worth Center
02:29PM 35.5589 -100.0536 236° Southwest 246 283 14,000  Level Fort Worth Center
02:30PM 35.5231 -100.1250 238° Southwest 246 283 14,000 -60 Level Fort Worth Center
02:31PM 35.4839 -100.1947 235° Southwest 246 283 13,900  Descending Fort Worth Center
02:32PM 35.4475 -100.2656 238° Southwest 246 283 14,000 60 Climbing Fort Worth Center
02:33PM 35.4008 -100.3472 235° Southwest 246 283 14,100  Climbing Fort Worth Center
02:34PM 35.3642 -100.4169 237° Southwest 246 283 14,100 -60 Level Fort Worth Center
02:35PM 35.3264 -100.4853 236° Southwest 245 282 14,000 -60 Descending Fort Worth Center
02:36PM 35.2864 -100.5542 235° Southwest 245 282 14,000 -60 Level Fort Worth Center
02:37PM 35.2503 -100.6236 238° Southwest 245 282 13,900  Descending Fort Worth Center
02:38PM 35.2042 -100.7094 237° Southwest 245 282 14,000 60 Climbing Albuquerque Center
02:39PM 35.1647 -100.7775 235° Southwest 245 282 14,100 -60 Climbing Albuquerque Center
02:40PM 35.1258 -100.8472 236° Southwest 245 282 13,900  Descending Albuquerque Center
02:41PM 35.0867 -100.9161 235° Southwest 245 282 14,100  Climbing Albuquerque Center
02:43PM 35.0086 -101.0553 236° Southwest 245 282 14,000 -60 Descending Albuquerque Center
02:44PM 34.9719 -101.1233 237° Southwest 244 281 14,000  Level Albuquerque Center
02:45PM 34.9336 -101.1908 235° Southwest 244 281 14,100  Climbing Albuquerque Center
02:46PM 34.8875 -101.2739 236° Southwest 244 281 14,100 -60 Level Albuquerque Center
02:47PM 34.8458 -101.3406 233° Southwest 244 281 14,000 -60 Descending Albuquerque Center
02:48PM 34.8075 -101.4108 236° Southwest 245 282 14,000  Level Albuquerque Center
02:50PM 34.7381 -101.5353 236° Southwest 245 282 14,100  Climbing Albuquerque Center
02:51PM 34.7022 -101.6050 238° Southwest 245 282 14,100  Level Albuquerque Center
02:52PM 34.6639 -101.6739 236° Southwest 245 282 14,100  Level Albuquerque Center
02:53PM 34.6211 -101.7403 232° Southwest 246 283 14,100  Level Albuquerque Center
02:54PM 34.5828 -101.8086 236° Southwest 246 283 14,100  Level Albuquerque Center
02:55PM 34.5378 -101.8936 237° Southwest 246 283 14,100 -60 Level Albuquerque Center
02:56PM 34.4953 -101.9611 233° Southwest 247 284 14,000  Descending Albuquerque Center
02:57PM 34.4564 -102.0303 236° Southwest 247 284 14,100  Climbing Albuquerque Center
02:58PM 34.4172 -102.0994 236° Southwest 247 284 14,000  Descending Albuquerque Center
02:59PM 34.3778 -102.1658 234° Southwest 247 284 14,100  Climbing Albuquerque Center
03:00PM 34.3381 -102.2375 236° Southwest 251 289 14,100  Level Albuquerque Center
03:01PM 34.2964 -102.3075 234° Southwest 252 290 14,100  Level Albuquerque Center
03:02PM 34.2553 -102.3778 235° Southwest 254 292 14,100  Level Albuquerque Center
03:03PM 34.2106 -102.4561 235° Southwest 254 292 14,100 -60 Level Albuquerque Center
03:04PM 34.1686 -102.5250 234° Southwest 254 292 14,000 -60 Descending Albuquerque Center
03:05PM 34.1294 -102.5967 237° Southwest 256 295 14,000  Level Albuquerque Center
03:06PM 34.0886 -102.6658 235° Southwest 256 295 14,000  Level Albuquerque Center
03:07PM 34.0486 -102.7378 236° Southwest 256 295 14,100  Climbing Albuquerque Center
03:08PM 33.9972 -102.8206 233° Southwest 256 295 14,100  Level Albuquerque Center
03:09PM 33.9594 -102.8894 237° Southwest 254 292 14,100  Level Albuquerque Center
03:10PM 33.9183 -102.9581 234° Southwest 254 292 14,100 -60 Level Albuquerque Center
03:12PM 33.8769 -103.0278 234° Southwest 254 292 14,000  Descending Albuquerque Center
03:13PM 33.8350 -103.0983 234° Southwest 255 293 14,100  Climbing Albuquerque Center
03:14PM 33.7950 -103.1653 234° Southwest 255 293 14,000 -60 Descending Albuquerque Center
03:15PM 33.7536 -103.2350 234° Southwest 255 293 14,000  Level Albuquerque Center
03:16PM 33.7058 -103.3169 235° Southwest 255 293 14,000  Level Albuquerque Center
03:17PM 33.6642 -103.3872 235° Southwest 254 292 14,000  Level Albuquerque Center
03:18PM 33.6200 -103.4581 233° Southwest 258 297 14,100  Climbing Albuquerque Center
03:19PM 33.5794 -103.5278 235° Southwest 259 298 14,000  Descending Albuquerque Center
03:20PM 33.5389 -103.5956 234° Southwest 258 297 14,100  Climbing Albuquerque Center
03:21PM 33.4981 -103.6650 235° Southwest 258 297 14,000 -60 Descending Albuquerque Center
03:22PM 33.4489 -103.7508 236° Southwest 258 297 14,000  Level Albuquerque Center
03:23PM 33.4067 -103.8194 234° Southwest 257 296 14,100  Climbing Albuquerque Center
03:24PM 33.3589 -103.8839 228° Southwest 257 296 14,100 -60 Level Albuquerque Center
03:25PM 33.3092 -103.9553 230° Southwest 257 296 14,000 -60 Descending Albuquerque Center
03:26PM 33.2628 -104.0214 230° Southwest 258 297 14,000  Level Albuquerque Center
03:27PM 33.2175 -104.0881 231° Southwest 258 297 14,100  Climbing Albuquerque Center
03:28PM 33.1664 -104.1578 229° Southwest 258 297 14,000  Descending Albuquerque Center
03:29PM 33.1208 -104.2247 231° Southwest 259 298 14,100  Climbing Albuquerque Center
03:30PM 33.0742 -104.2897 229° Southwest 259 298 14,100  Level Albuquerque Center
03:31PM 33.0247 -104.3528 227° Southwest 259 298 14,100 -60 Level Albuquerque Center
03:32PM 32.9761 -104.4264 232° Southwest 259 298 14,000 -60 Descending Albuquerque Center
03:33PM 32.9294 -104.4942 231° Southwest 260 299 14,000  Level Albuquerque Center
03:34PM 32.8825 -104.5594 229° Southwest 261 300 14,100  Climbing Albuquerque Center
03:35PM 32.8331 -104.6311 231° Southwest 261 300 14,000  Descending Albuquerque Center
03:36PM 32.7864 -104.7011 232° Southwest 269 310 14,100  Climbing Albuquerque Center
03:37PM 32.7372 -104.7653 228° Southwest 267 307 14,000 -120 Descending Albuquerque Center
03:38PM 32.6831 -104.8342 227° Southwest 265 305 13,900  Descending Albuquerque Center
03:39PM 32.6339 -104.9017 229° Southwest 267 307 14,000  Climbing Albuquerque Center
03:40PM 32.5858 -104.9717 231° Southwest 271 312 13,900 -60 Descending Albuquerque Center
03:41PM 32.5428 -105.0414 234° Southwest 277 319 13,900  Level Albuquerque Center
03:42PM 32.4936 -105.1103 230° Southwest 276 318 14,000  Climbing Albuquerque Center
03:43PM 32.4428 -105.1753 227° Southwest 275 316 13,900 -60 Descending Albuquerque Center
03:44PM 32.3867 -105.2581 231° Southwest 272 313 13,900 -360 Level Albuquerque Center
03:45PM 32.3414 -105.3244 231° Southwest 268 308 13,200 -780 Descending Albuquerque Center
03:46PM 32.2969 -105.3903 231° Southwest 260 299 12,400 -900 Descending Albuquerque Center
03:47PM 32.2486 -105.4517 227° Southwest 258 297 11,400 -1,020 Descending Albuquerque Center
03:48PM 32.2081 -105.5000 225° Southwest 250 288 10,600 -1,020 Descending Albuquerque Center
03:48PM 32.2025 -105.5136 244° Southwest 257 296 10,400 -720 Descending Albuquerque Center
03:49PM 32.1617 -105.5600 224° Southwest 247 284 9,900 -540 Descending Albuquerque Center
03:49PM 32.1594 -105.5725 258° West 250 288 9,900 60 Level Albuquerque Center
03:50PM 32.1233 -105.6175 227° Southwest 230 265 10,000 60 Climbing Albuquerque Center
03:51PM 32.1192 -105.6294 248° West 234 269 10,000 60 Level Albuquerque Center
03:51PM 32.0792 -105.6792 226° Southwest 242 278 10,100  Climbing Albuquerque Center
03:52PM 32.0742 -105.6892 239° Southwest 240 276 10,000 -120 Descending Albuquerque Center
03:52PM 32.0328 -105.7386 225° Southwest 247 284 10,000 60 Level Albuquerque Center
03:53PM 32.0186 -105.7619 234° Southwest 245 282 10,100  Climbing Albuquerque Center
03:53PM 31.9911 -105.8019 231° Southwest 251 289 10,000 -120 Descending Albuquerque Center
03:54PM 31.9753 -105.8256 232° Southwest 248 285 10,000 -900 Level Albuquerque Center
03:54PM 31.9542 -105.8692 240° Southwest 244 281 9,100 -1,260 Descending Albuquerque Center
03:55PM 31.9450 -105.8956 248° West 247 284 8,700 -600 Descending Albuquerque Center
03:55PM 31.9275 -105.9436 247° West 225 259 8,500 -240 Descending Albuquerque Center
03:56PM 31.9233 -105.9617 255° West 229 264 8,500 60 Level Albuquerque Center
03:56PM 31.9083 -106.0136 251° West 221 254 8,600  Climbing Albuquerque Center
03:57PM 31.9003 -106.0311 242° Southwest 226 260 8,500 -540 Descending Albuquerque Center
03:57PM 31.8778 -106.0789 241° Southwest 231 266 8,100 -780 Descending Albuquerque Center
03:58PM 31.8636 -106.1036 236° Southwest 228 262 7,700 -720 Descending Albuquerque Center
03:58PM 31.8342 -106.1322 220° Southwest 224 258 7,400 -540 Descending Albuquerque Center
03:59PM 31.8250 -106.1464 233° Southwest 217 250 7,200 -1,020 Descending Albuquerque Center
03:59PM 31.8086 -106.1914 247° West 202 232 6,400 -1,080 Descending Albuquerque Center
04:00PM 31.7994 -106.2194 249° West 203 234 6,100 -480 Descending Albuquerque Center
04:00PM 31.7933 -106.2475 256° West 191 220 6,000 -540 Descending Albuquerque Center
04:01PM 31.7958 -106.2756 276° West 173 199 5,600 -900 Descending Albuquerque Center
04:01PM 31.7967 -106.3017 272° West 157 181 5,100 -1,020 Descending Albuquerque Center
04:02PM 31.7992 -106.3289 276° West 165 190 4,600 -720 Descending Albuquerque Center
04:03PM 31.8031 -106.3847 275° West 160 184 4,000 -600 Descending Albuquerque Center
04:05PM 31.8072 -106.3764 90° East  Level Estimated
04:12PM 31.8072 -106.3764 90° East  Level Estimated
04:13PM 31.8072 -106.3764 90° East  Level Estimated
04:14PM 31.8072 -106.3764 90° East  Level Estimated